Terminal Aerodrome Forecast
Issued by NWS Charleston, WV

Current Version | Previous Version | Graphics & Text | Print | Product List | Glossary On
Versions: 1 2 3 4 5 6 7 8 9 10 11 12 13 14 15 16 17 18 19 20 21 22 23 24 25
000
FTUS41 KRLX 200907 AAA
TAFCRW
TAF AMD
KCRW 200907Z 2009/2106 VRB03KT P6SM SCT050 BKN100
     FM201400 22005KT P6SM BKN050
     FM201700 24008G14KT P6SM VCSH BKN040=

USA.gov is the U.S. government's official web portal to all federal, state and local government web resources and services.